Time;durP1;ratioP1;P1;durP2;ratioP2;P2;SDS_P1;SDS_P2;PMS_P1;PMS_P2;Temp;Humidity;BMP_temperature;BMP_pressure;BME280_temperature;BME280_humidity;BME280_pressure;Samples;Min_cycle;Max_cycle;Signal;HPM_P1;HPM_P2
2023/08/01 00:01:35;;;;;;;;;;;;;;;19.08;100.00;94876.50;10552364;28;2096;-84
2023/08/01 00:07:00;;;;;;;;;;;;;;;19.14;100.00;94866.91;10555793;28;1985;-83
2023/08/01 00:12:04;;;;;;;;;;;;;;;19.17;100.00;94864.31;10558489;28;1859;-87
2023/08/01 00:22:44;;;;;;;;;;;;;;;19.14;100.00;94845.13;10565935;28;1897;-84
2023/08/01 00:33:31;;;;;;;;;;;;;;;19.32;100.00;94830.03;10546477;28;2211;-82
2023/08/01 00:38:43;;;;;;;;;;;;;;;19.38;100.00;94816.94;10547320;28;2123;-83
2023/08/01 00:43:52;;;;;;;;;;;;;;;19.39;100.00;94807.59;10530730;28;2285;-85
2023/08/01 00:49:10;;;;;;;;;;;;;;;19.25;100.00;94801.81;10551743;28;1971;-85
2023/08/01 00:54:21;;;;;;;;;;;;;;;19.15;100.00;94782.16;10551486;28;2072;-85
2023/08/01 00:59:35;;;;;;;;;;;;;;;19.20;100.00;94781.06;10551724;28;2022;-85
2023/08/01 01:05:00;;;;;;;;;;;;;;;;;;;;;
2023/08/01 01:10:51;;;;;;;;;;;;;;;19.18;100.00;94770.53;10558065;28;2047;-85
2023/08/01 01:21:34;;;;;;;;;;;;;;;19.20;100.00;94740.19;10553598;28;2357;-86
2023/08/01 01:27:06;;;;;;;;;;;;;;;19.23;100.00;94734.06;10539727;28;2384;-85
2023/08/01 01:32:17;;;;;;;;;;;;;;;19.30;100.00;94734.22;10550974;28;2023;-86
2023/08/01 01:37:35;;;;;;;;;;;;;;;19.33;100.00;94728.06;10554682;28;2008;-86
2023/08/01 01:42:53;;;;;;;;;;;;;;;19.43;100.00;94727.50;10548487;28;2060;-86
2023/08/01 01:48:06;;;;;;;;;;;;;;;19.29;100.00;94729.94;10524612;28;1943;-85
2023/08/01 01:58:55;;;;;;;;;;;;;;;18.50;100.00;94716.28;10548353;28;2096;-84
2023/08/01 02:09:53;;;;;;;;;;;;;;;17.99;100.00;94690.81;10549060;28;1945;-85
2023/08/01 02:15:09;;;;;;;;;;;;;;;17.95;100.00;94698.09;10545043;28;2057;-85
2023/08/01 02:20:24;;;;;;;;;;;;;;;17.96;100.00;94686.09;10556086;28;1790;-85
2023/08/01 02:25:44;;;;;;;;;;;;;;;17.99;100.00;94669.84;10551791;28;1978;-85
2023/08/01 02:31:02;;;;;;;;;;;;;;;17.97;100.00;94669.41;10548775;28;2387;-85
2023/08/01 02:36:21;;;;;;;;;;;;;;;18.00;100.00;94667.94;10526192;28;1904;-85
2023/08/01 02:47:10;;;;;;;;;;;;;;;18.00;100.00;94662.47;10538788;28;2008;-84
2023/08/01 02:52:25;;;;;;;;;;;;;;;17.99;100.00;94669.84;10527304;28;1844;-85
2023/08/01 02:57:29;;;;;;;;;;;;;;;18.00;100.00;94674.16;10549665;28;1846;-85
2023/08/01 03:02:40;;;;;;;;;;;;;;;18.03;100.00;94680.84;10533060;28;1888;-86
2023/08/01 03:13:25;;;;;;;;;;;;;;;17.75;100.00;94702.56;10531315;28;1826;-84
2023/08/01 03:18:41;;;;;;;;;;;;;;;17.55;100.00;94679.84;10551836;28;1896;-85
2023/08/01 03:23:59;;;;;;;;;;;;;;;17.35;100.00;94694.38;10558035;28;1864;-85
2023/08/01 03:34:32;;;;;;;;;;;;;;;17.13;100.00;94714.69;10553852;28;1885;-86
2023/08/01 03:39:47;;;;;;;;;;;;;;;17.15;100.00;94706.97;10549223;28;4485;-82
2023/08/01 03:45:07;;;;;;;;;;;;;;;16.86;100.00;94714.25;10513353;28;1796;-82
2023/08/01 03:50:10;;;;;;;;;;;;;;;16.52;100.00;94720.81;10552616;28;1918;-82
2023/08/01 03:55:12;;;;;;;;;;;;;;;16.40;100.00;94718.88;10558936;28;1932;-81
2023/08/01 04:00:32;;;;;;;;;;;;;;;16.26;100.00;94740.09;10539532;28;1695;-83
2023/08/01 04:05:48;;;;;;;;;;;;;;;16.10;100.00;94753.50;10558909;28;2131;-88
2023/08/01 04:11:03;;;;;;;;;;;;;;;16.15;100.00;94766.03;10563115;28;1881;-86
2023/08/01 04:16:06;;;;;;;;;;;;;;;16.13;100.00;94769.06;10556902;28;1994;-87
2023/08/01 04:21:22;;;;;;;;;;;;;;;16.06;100.00;94768.03;10537311;28;1853;-86
2023/08/01 04:26:33;;;;;;;;;;;;;;;16.01;100.00;94766.31;10548225;28;1961;-85
2023/08/01 04:31:46;;;;;;;;;;;;;;;15.93;100.00;94761.75;10554210;28;1861;-86
2023/08/01 04:36:56;;;;;;;;;;;;;;;15.97;100.00;94773.53;10556397;28;4600;-86
2023/08/01 04:42:07;;;;;;;;;;;;;;;15.98;100.00;94766.19;10558567;28;1841;-86
2023/08/01 04:47:15;;;;;;;;;;;;;;;15.99;100.00;94755.00;10536556;28;2053;-85
2023/08/01 05:03:18;;;;;;;;;;;;;;;16.01;100.00;94733.00;10545590;28;2205;-80
2023/08/01 05:08:24;;;;;;;;;;;;;;;15.98;100.00;94726.34;10547725;28;1982;-82
2023/08/01 05:13:33;;;;;;;;;;;;;;;16.11;100.00;94733.38;10529050;28;2104;-83
2023/08/01 05:18:46;;;;;;;;;;;;;;;16.11;100.00;94724.47;10524089;28;2084;-83
2023/08/01 05:24:05;;;;;;;;;;;;;;;16.34;100.00;94709.38;10541518;28;2153;-84
2023/08/01 05:29:18;;;;;;;;;;;;;;;16.23;100.00;94691.19;10529742;28;2070;-85
2023/08/01 05:40:14;;;;;;;;;;;;;;;16.51;100.00;94708.41;10537396;28;4599;-83
2023/08/01 05:50:55;;;;;;;;;;;;;;;16.58;100.00;94713.25;10533561;28;2262;-80
2023/08/01 05:56:12;;;;;;;;;;;;;;;16.68;100.00;94701.97;10519913;28;2294;-78
2023/08/01 06:01:17;;;;;;;;;;;;;;;16.87;100.00;94693.31;10513849;28;1978;-80
2023/08/01 06:06:28;;;;;;;;;;;;;;;16.87;100.00;94698.75;10529085;28;2132;-82
2023/08/01 06:11:33;;;;;;;;;;;;;;;17.04;100.00;94682.19;10530083;28;1892;-85
2023/08/01 06:16:40;;;;;;;;;;;;;;;16.92;100.00;94680.31;10538388;28;1965;-85
2023/08/01 06:21:47;;;;;;;;;;;;;;;17.08;100.00;94661.41;10538071;28;1940;-81
2023/08/01 06:26:52;;;;;;;;;;;;;;;17.11;100.00;94665.34;10538159;28;1910;-82
2023/08/01 06:31:59;;;;;;;;;;;;;;;17.18;100.00;94633.78;10531161;28;2000;-80
2023/08/01 06:37:04;;;;;;;;;;;;;;;17.27;100.00;94615.41;10519733;28;2042;-80
2023/08/01 06:42:09;;;;;;;;;;;;;;;17.58;100.00;94594.16;10514737;28;1862;-85
2023/08/01 06:47:11;;;;;;;;;;;;;;;17.51;100.00;94586.59;10519038;28;1934;-80
2023/08/01 06:52:17;;;;;;;;;;;;;;;17.52;100.00;94561.78;10517433;28;2535;-78
2023/08/01 06:57:22;;;;;;;;;;;;;;;17.64;100.00;94555.50;10540854;27;1961;-80
2023/08/01 07:02:28;;;;;;;;;;;;;;;17.68;100.00;94553.66;10525062;28;2155;-80
2023/08/01 07:07:32;;;;;;;;;;;;;;;18.04;100.00;94543.75;10530609;28;1946;-86
2023/08/01 07:12:37;;;;;;;;;;;;;;;17.89;100.00;94528.22;10540936;28;1918;-88
2023/08/01 07:17:49;;;;;;;;;;;;;;;17.98;100.00;94529.63;10531133;28;1827;-90
2023/08/01 07:28:11;;;;;;;;;;;;;;;18.23;100.00;94497.59;10522730;28;1912;-81
2023/08/01 07:33:17;;;;;;;;;;;;;;;18.21;100.00;94513.47;10529647;28;1915;-82
2023/08/01 07:38:21;;;;;;;;;;;;;;;18.10;100.00;94517.88;10538847;28;4564;-83
2023/08/01 07:43:26;;;;;;;;;;;;;;;18.35;100.00;94494.75;10532153;28;2160;-80
2023/08/01 07:48:32;;;;;;;;;;;;;;;18.69;100.00;94472.59;10536421;28;1979;-75
2023/08/01 07:53:36;;;;;;;;;;;;;;;19.09;100.00;94464.88;10532044;28;2011;-74
2023/08/01 07:58:39;;;;;;;;;;;;;;;19.50;100.00;94459.00;10525876;28;2080;-72
2023/08/01 08:03:44;;;;;;;;;;;;;;;19.43;100.00;94474.06;10521950;28;2336;-76
2023/08/01 08:08:50;;;;;;;;;;;;;;;19.41;100.00;94528.16;10527755;28;1914;-80
2023/08/01 08:13:57;;;;;;;;;;;;;;;19.58;100.00;94515.25;10532000;28;1895;-77
2023/08/01 08:19:05;;;;;;;;;;;;;;;20.69;100.00;94480.47;10521867;28;1942;-76
2023/08/01 08:24:11;;;;;;;;;;;;;;;21.35;100.00;94483.66;10512088;28;1901;-75
2023/08/01 08:29:14;;;;;;;;;;;;;;;21.66;100.00;94498.03;10523949;28;1982;-76
2023/08/01 08:34:20;;;;;;;;;;;;;;;22.36;100.00;94503.41;10530221;28;1883;-75
2023/08/01 08:39:28;;;;;;;;;;;;;;;22.37;100.00;94502.22;10524475;28;1869;-76
2023/08/01 08:44:34;;;;;;;;;;;;;;;22.35;100.00;94493.63;10506135;28;2310;-75
2023/08/01 08:49:40;;;;;;;;;;;;;;;21.89;100.00;94506.88;10519326;28;1906;-75
2023/08/01 08:54:45;;;;;;;;;;;;;;;22.11;100.00;94525.09;10523485;28;1956;-76
2023/08/01 08:59:53;;;;;;;;;;;;;;;21.90;100.00;94530.34;10499043;28;1929;-76
2023/08/01 09:04:56;;;;;;;;;;;;;;;21.57;100.00;94529.22;10518761;28;1924;-76
2023/08/01 09:10:04;;;;;;;;;;;;;;;21.35;100.00;94524.66;10523373;28;1937;-77
2023/08/01 09:15:37;;;;;;;;;;;;;;;21.26;100.00;94507.72;10521597;28;1858;-77
2023/08/01 09:20:47;;;;;;;;;;;;;;;21.53;100.00;94506.50;10521085;28;1999;-77
2023/08/01 09:25:52;;;;;;;;;;;;;;;21.69;100.00;94524.63;10507619;28;1961;-76
2023/08/01 09:31:23;;;;;;;;;;;;;;;21.98;100.00;94531.97;10515397;28;1919;-76
2023/08/01 09:36:29;;;;;;;;;;;;;;;21.70;100.00;94548.88;10520801;28;4661;-76
2023/08/01 09:41:33;;;;;;;;;;;;;;;21.42;100.00;94554.00;10495320;28;2397;-75
2023/08/01 09:46:47;;;;;;;;;;;;;;;21.44;100.00;94555.22;10503032;28;2019;-76
2023/08/01 09:51:51;;;;;;;;;;;;;;;21.21;100.00;94544.34;10515923;28;2097;-76
2023/08/01 09:56:56;;;;;;;;;;;;;;;21.46;100.00;94561.09;10515431;28;1880;-77
2023/08/01 10:02:09;;;;;;;;;;;;;;;21.52;100.00;94537.75;10518213;28;1860;-77
2023/08/01 10:07:16;;;;;;;;;;;;;;;21.34;100.00;94544.94;10525524;28;1861;-76
2023/08/01 10:12:25;;;;;;;;;;;;;;;20.58;100.00;94560.63;10501972;28;1908;-76
2023/08/01 10:17:33;;;;;;;;;;;;;;;20.40;100.00;94577.47;10513682;28;1901;-74
2023/08/01 10:28:01;;;;;;;;;;;;;;;19.80;100.00;94614.59;10498168;28;2073;-75
2023/08/01 10:33:12;;;;;;;;;;;;;;;18.40;100.00;94626.22;10524527;28;1968;-76
2023/08/01 10:38:21;;;;;;;;;;;;;;;17.65;100.00;94621.50;10521610;28;4398;-78
2023/08/01 10:43:24;;;;;;;;;;;;;;;17.83;100.00;94610.03;10523071;28;1888;-78
2023/08/01 10:48:32;;;;;;;;;;;;;;;17.97;100.00;94609.59;10530866;28;1930;-78
2023/08/01 10:53:36;;;;;;;;;;;;;;;18.07;100.00;94613.75;10502826;28;1897;-79
2023/08/01 10:58:53;;;;;;;;;;;;;;;18.03;100.00;94574.78;10523380;28;1879;-79
2023/08/01 11:04:01;;;;;;;;;;;;;;;18.19;100.00;94540.22;10525924;28;2071;-76
2023/08/01 11:09:07;;;;;;;;;;;;;;;18.56;100.00;94548.09;10519886;28;2060;-76
2023/08/01 11:14:19;;;;;;;;;;;;;;;18.70;100.00;94543.00;10524875;28;1881;-77
2023/08/01 11:19:27;;;;;;;;;;;;;;;18.52;100.00;94555.41;10505560;28;1916;-77
2023/08/01 11:24:42;;;;;;;;;;;;;;;18.76;100.00;94579.69;10524051;28;2044;-75
2023/08/01 11:29:49;;;;;;;;;;;;;;;19.14;100.00;94570.00;10519787;28;1971;-76
2023/08/01 11:34:58;;;;;;;;;;;;;;;18.85;100.00;94574.84;10519243;28;2460;-78
2023/08/01 11:40:01;;;;;;;;;;;;;;;19.16;100.00;94584.88;10519407;28;4561;-76
2023/08/01 11:45:05;;;;;;;;;;;;;;;18.98;100.00;94591.06;10499827;28;1945;-78
2023/08/01 11:50:10;;;;;;;;;;;;;;;18.21;100.00;94602.44;10519161;28;1981;-75
2023/08/01 11:55:13;;;;;;;;;;;;;;;17.94;100.00;94585.84;10519890;28;2130;-75
2023/08/01 12:00:17;;;;;;;;;;;;;;;17.60;100.00;94603.53;10517639;28;1962;-75
2023/08/01 12:05:21;;;;;;;;;;;;;;;17.77;100.00;94607.91;10525195;28;1976;-76
2023/08/01 12:10:51;;;;;;;;;;;;;;;18.11;100.00;94603.75;10519580;28;2090;-75
2023/08/01 12:16:00;;;;;;;;;;;;;;;18.77;100.00;94607.72;10525090;28;1885;-75
2023/08/01 12:21:06;;;;;;;;;;;;;;;19.72;100.00;94608.19;10520696;28;1929;-76
2023/08/01 12:26:10;;;;;;;;;;;;;;;20.26;100.00;94615.44;10499861;28;1882;-76
2023/08/01 12:31:14;;;;;;;;;;;;;;;20.09;100.00;94615.91;10517199;28;1967;-77
2023/08/01 12:36:21;;;;;;;;;;;;;;;20.25;100.00;94627.53;10509546;28;4501;-79
2023/08/01 12:41:26;;;;;;;;;;;;;;;20.60;100.00;94604.72;10519473;28;1932;-76
2023/08/01 12:46:29;;;;;;;;;;;;;;;20.93;100.00;94613.06;10504106;28;1895;-76
2023/08/01 12:51:38;;;;;;;;;;;;;;;20.77;100.00;94601.50;10512503;28;1913;-74
2023/08/01 12:56:42;;;;;;;;;;;;;;;20.99;100.00;94613.50;10516927;28;1896;-76
2023/08/01 13:01:55;;;;;;;;;;;;;;;21.41;100.00;94604.38;10517473;28;2031;-79
2023/08/01 13:06:59;;;;;;;;;;;;;;;21.98;100.00;94610.53;10512886;28;1961;-76
2023/08/01 13:12:03;;;;;;;;;;;;;;;20.96;100.00;94587.72;10506466;28;1914;-75
2023/08/01 13:17:10;;;;;;;;;;;;;;;21.30;100.00;94596.81;10518207;28;2024;-75
2023/08/01 13:22:14;;;;;;;;;;;;;;;20.66;100.00;94597.81;10497386;28;1961;-75
2023/08/01 13:27:19;;;;;;;;;;;;;;;20.44;100.00;94581.06;10518812;28;2291;-77
2023/08/01 13:32:22;;;;;;;;;;;;;;;20.87;100.00;94598.16;10482476;28;2135;-75
2023/08/01 13:37:32;;;;;;;;;;;;;;;21.93;100.00;94588.97;10516520;28;4516;-77
2023/08/01 13:42:42;;;;;;;;;;;;;;;21.64;100.00;94598.81;10516067;28;2047;-76
2023/08/01 13:47:55;;;;;;;;;;;;;;;22.28;100.00;94591.31;10517931;28;2082;-78
2023/08/01 13:52:58;;;;;;;;;;;;;;;22.33;100.00;94586.28;10517406;28;1981;-77
2023/08/01 13:58:04;;;;;;;;;;;;;;;21.72;100.00;94584.06;10517540;28;1896;-78
2023/08/01 14:03:19;;;;;;;;;;;;;;;20.92;100.00;94586.09;10513458;28;1990;-77
2023/08/01 14:08:23;;;;;;;;;;;;;;;19.86;100.00;94603.03;10496888;28;1906;-77
2023/08/01 14:13:31;;;;;;;;;;;;;;;19.33;100.00;94610.88;10518257;28;1900;-77
2023/08/01 14:18:35;;;;;;;;;;;;;;;18.90;100.00;94623.59;10520093;28;1916;-76
2023/08/01 14:23:40;;;;;;;;;;;;;;;18.20;100.00;94593.50;10514137;28;2412;-77
2023/08/01 14:28:50;;;;;;;;;;;;;;;17.94;100.00;94647.56;10512734;28;1910;-75
2023/08/01 14:34:09;;;;;;;;;;;;;;;17.72;100.00;94655.13;10496397;28;1939;-75
2023/08/01 14:39:18;;;;;;;;;;;;;;;17.94;100.00;94658.44;10519655;28;4541;-75
2023/08/01 14:44:26;;;;;;;;;;;;;;;18.29;100.00;94662.09;10517843;28;2127;-75
2023/08/01 14:49:29;;;;;;;;;;;;;;;18.31;100.00;94657.09;10494000;28;1905;-75
2023/08/01 14:54:39;;;;;;;;;;;;;;;19.05;100.00;94662.03;10517046;28;1898;-75
2023/08/01 14:59:43;;;;;;;;;;;;;;;19.89;100.00;94637.75;10513626;28;1876;-75
2023/08/01 15:04:52;;;;;;;;;;;;;;;20.36;100.00;94647.59;10494853;28;2020;-75
2023/08/01 15:09:55;;;;;;;;;;;;;;;20.15;100.00;94652.66;10517249;28;2005;-76
2023/08/01 15:14:58;;;;;;;;;;;;;;;19.56;100.00;94668.22;10500816;28;1877;-75
2023/08/01 15:20:02;;;;;;;;;;;;;;;18.72;100.00;94685.00;10532152;28;2303;-76
2023/08/01 15:25:07;;;;;;;;;;;;;;;17.70;100.00;94697.38;10528678;28;1841;-76
2023/08/01 15:30:16;;;;;;;;;;;;;;;17.44;100.00;94689.63;10520264;28;2094;-76
2023/08/01 15:35:32;;;;;;;;;;;;;;;17.17;100.00;94686.47;10525960;28;1962;-76
2023/08/01 15:40:39;;;;;;;;;;;;;;;17.14;100.00;94676.31;10525846;28;1908;-77
2023/08/01 15:45:45;;;;;;;;;;;;;;;17.48;100.00;94652.47;10519185;28;1925;-77
2023/08/01 15:50:51;;;;;;;;;;;;;;;18.32;100.00;94650.53;10534224;28;1979;-74
2023/08/01 15:55:54;;;;;;;;;;;;;;;18.77;100.00;94668.41;10523940;28;1880;-75
2023/08/01 16:01:00;;;;;;;;;;;;;;;18.72;100.00;94665.94;10525051;28;1945;-74
2023/08/01 16:06:07;;;;;;;;;;;;;;;18.55;100.00;94658.09;10523109;28;1965;-75
2023/08/01 16:11:12;;;;;;;;;;;;;;;18.62;100.00;94658.25;10503423;28;1914;-76
2023/08/01 16:16:18;;;;;;;;;;;;;;;18.52;100.00;94677.84;10524151;28;2443;-78
2023/08/01 16:21:34;;;;;;;;;;;;;;;18.42;100.00;94675.63;10503635;28;2225;-79
2023/08/01 16:26:40;;;;;;;;;;;;;;;18.30;100.00;94671.84;10522510;28;1957;-79
2023/08/01 16:37:07;;;;;;;;;;;;;;;18.09;100.00;94680.25;10503370;28;4427;-79
2023/08/01 16:42:13;;;;;;;;;;;;;;;18.12;100.00;94667.88;10528003;28;1941;-79
2023/08/01 16:47:19;;;;;;;;;;;;;;;18.01;100.00;94664.88;10524204;28;2011;-79
2023/08/01 16:52:46;;;;;;;;;;;;;;;18.00;100.00;94673.38;10520737;28;1918;-80
2023/08/01 16:57:50;;;;;;;;;;;;;;;18.16;100.00;94674.19;10525040;28;2050;-78
2023/08/01 17:02:55;;;;;;;;;;;;;;;18.23;100.00;94673.59;10504447;28;1902;-79
2023/08/01 17:08:08;;;;;;;;;;;;;;;18.15;100.00;94680.00;10507724;28;2230;-79
2023/08/01 17:13:15;;;;;;;;;;;;;;;18.12;100.00;94675.22;10516904;28;1950;-79
2023/08/01 17:18:22;;;;;;;;;;;;;;;18.43;100.00;94691.59;10524467;28;1892;-79
2023/08/01 17:23:27;;;;;;;;;;;;;;;18.56;100.00;94703.22;10509197;28;1895;-74
2023/08/01 17:28:32;;;;;;;;;;;;;;;18.94;100.00;94699.91;10529077;28;1947;-73
2023/08/01 17:33:39;;;;;;;;;;;;;;;18.82;100.00;94708.94;10528130;28;2296;-72
2023/08/01 17:38:48;;;;;;;;;;;;;;;18.80;100.00;94713.19;10525195;28;4577;-73
2023/08/01 17:43:56;;;;;;;;;;;;;;;18.68;100.00;94710.53;10521258;28;1846;-79
2023/08/01 17:49:04;;;;;;;;;;;;;;;18.68;100.00;94714.03;10527413;28;1932;-79
2023/08/01 17:59:30;;;;;;;;;;;;;;;18.44;100.00;94731.28;10523832;28;2055;-80
2023/08/01 18:04:37;;;;;;;;;;;;;;;18.18;100.00;94739.13;10517754;28;2414;-76
2023/08/01 18:09:42;;;;;;;;;;;;;;;18.13;100.00;94745.59;10526767;28;1890;-77
2023/08/01 18:14:48;;;;;;;;;;;;;;;18.03;100.00;94748.81;10510638;28;2147;-77
2023/08/01 18:19:54;;;;;;;;;;;;;;;18.11;100.00;94766.91;10509482;28;1896;-72
2023/08/01 18:25:10;;;;;;;;;;;;;;;18.05;100.00;94760.13;10518408;28;1925;-78
2023/08/01 18:30:13;;;;;;;;;;;;;;;17.87;100.00;94775.13;10485237;28;1996;-78
2023/08/01 18:35:19;;;;;;;;;;;;;;;17.61;100.00;94781.72;10515932;28;1904;-78
2023/08/01 18:40:22;;;;;;;;;;;;;;;17.48;100.00;94785.59;10526434;28;4545;-77
2023/08/01 18:45:25;;;;;;;;;;;;;;;17.38;100.00;94799.66;10528585;28;1830;-78
2023/08/01 18:50:29;;;;;;;;;;;;;;;17.44;100.00;94803.72;10522605;28;1922;-77
2023/08/01 18:55:34;;;;;;;;;;;;;;;17.56;100.00;94803.72;10526946;28;2115;-76
2023/08/01 19:00:38;;;;;;;;;;;;;;;17.49;100.00;94811.63;10513822;28;1945;-76
2023/08/01 19:05:48;;;;;;;;;;;;;;;17.51;100.00;94814.81;10535446;28;2007;-76
2023/08/01 19:10:53;;;;;;;;;;;;;;;17.38;100.00;94826.81;10522970;28;1981;-74
2023/08/01 19:15:57;;;;;;;;;;;;;;;17.27;100.00;94835.41;10525712;28;2126;-75
2023/08/01 19:21:09;;;;;;;;;;;;;;;17.42;100.00;94839.38;10534216;28;2093;-75
2023/08/01 19:26:16;;;;;;;;;;;;;;;17.42;100.00;94827.72;10510367;28;1835;-75
2023/08/01 19:31:22;;;;;;;;;;;;;;;17.53;100.00;94832.34;10532593;28;1941;-74
2023/08/01 19:36:25;;;;;;;;;;;;;;;17.47;100.00;94841.84;10507168;28;4557;-74
2023/08/01 19:41:30;;;;;;;;;;;;;;;17.58;100.00;94846.84;10529024;28;1861;-75
2023/08/01 19:46:36;;;;;;;;;;;;;;;17.43;100.00;94861.88;10529699;28;1888;-75
2023/08/01 19:51:39;;;;;;;;;;;;;;;17.97;100.00;94864.41;10513079;28;1910;-76
2023/08/01 19:56:48;;;;;;;;;;;;;;;17.99;100.00;94864.84;10526821;28;2119;-75
2023/08/01 20:01:52;;;;;;;;;;;;;;;17.81;100.00;94873.25;10522096;28;2291;-74
2023/08/01 20:07:02;;;;;;;;;;;;;;;17.86;100.00;94876.88;10522483;28;1965;-75
2023/08/01 20:12:09;;;;;;;;;;;;;;;17.98;100.00;94885.78;10512475;28;1935;-75
2023/08/01 20:17:15;;;;;;;;;;;;;;;17.49;100.00;94909.44;10528420;28;1885;-76
2023/08/01 20:22:20;;;;;;;;;;;;;;;16.84;100.00;94924.69;10526322;28;1879;-79
2023/08/01 20:27:24;;;;;;;;;;;;;;;16.60;100.00;94923.41;10522635;28;1921;-78
2023/08/01 20:32:32;;;;;;;;;;;;;;;16.56;100.00;94943.41;10526441;28;1952;-81
2023/08/01 20:37:37;;;;;;;;;;;;;;;16.52;100.00;94932.41;10525855;28;4530;-80
2023/08/01 20:42:42;;;;;;;;;;;;;;;16.44;100.00;94934.09;10529393;28;1917;-81
2023/08/01 20:47:53;;;;;;;;;;;;;;;16.31;100.00;94942.47;10531025;28;1837;-81
2023/08/01 20:53:05;;;;;;;;;;;;;;;16.25;100.00;94954.66;10528205;28;1910;-81
2023/08/01 20:58:19;;;;;;;;;;;;;;;16.32;100.00;94952.19;10527793;28;1853;-81
2023/08/01 21:03:24;;;;;;;;;;;;;;;16.27;100.00;94953.19;10523865;28;1878;-81
2023/08/01 21:08:31;;;;;;;;;;;;;;;16.13;100.00;94956.16;10526193;28;1874;-81
2023/08/01 21:13:36;;;;;;;;;;;;;;;16.11;100.00;94963.03;10524706;28;1976;-81
2023/08/01 21:18:40;;;;;;;;;;;;;;;16.20;100.00;94958.34;10525635;28;1849;-81
2023/08/01 21:23:47;;;;;;;;;;;;;;;16.07;100.00;94954.75;10525735;28;2372;-81
2023/08/01 21:28:57;;;;;;;;;;;;;;;16.01;100.00;94966.09;10505425;28;2032;-81
2023/08/01 21:34:17;;;;;;;;;;;;;;;16.04;100.00;94973.59;10526727;28;1972;-81
2023/08/01 21:39:26;;;;;;;;;;;;;;;15.95;100.00;94969.00;10529429;28;4477;-81
2023/08/01 21:44:29;;;;;;;;;;;;;;;15.90;100.00;94973.81;10527454;28;1905;-81
2023/08/01 21:49:35;;;;;;;;;;;;;;;15.86;100.00;94970.19;10521551;28;2079;-81
2023/08/01 21:54:43;;;;;;;;;;;;;;;15.81;100.00;94978.47;10518949;28;2262;-81
2023/08/01 21:59:49;;;;;;;;;;;;;;;15.84;100.00;94989.47;10524987;28;1877;-81
2023/08/01 22:04:58;;;;;;;;;;;;;;;15.70;100.00;94990.78;10517890;28;2000;-80
2023/08/01 22:10:10;;;;;;;;;;;;;;;15.73;100.00;94992.88;10527495;28;2004;-80
2023/08/01 22:15:23;;;;;;;;;;;;;;;15.73;100.00;95001.78;10526700;28;2079;-80
2023/08/01 22:20:27;;;;;;;;;;;;;;;15.53;100.00;95000.56;10519021;28;1881;-82
2023/08/01 22:25:40;;;;;;;;;;;;;;;15.57;100.00;95004.19;10526815;28;1931;-83
2023/08/01 22:30:44;;;;;;;;;;;;;;;15.60;100.00;95006.28;10517069;28;1906;-82
2023/08/01 22:35:51;;;;;;;;;;;;;;;15.62;100.00;95009.47;10519521;28;1936;-83
2023/08/01 22:40:53;;;;;;;;;;;;;;;15.57;100.00;95006.91;10505331;28;1889;-80
2023/08/01 22:45:59;;;;;;;;;;;;;;;15.67;100.00;95008.50;10522756;28;1914;-82
2023/08/01 22:51:12;;;;;;;;;;;;;;;15.56;100.00;95005.31;10522231;28;1910;-82
2023/08/01 22:56:25;;;;;;;;;;;;;;;15.57;100.00;95012.31;10503413;28;1962;-81
2023/08/01 23:01:36;;;;;;;;;;;;;;;15.50;100.00;95012.03;10524032;28;1972;-81
2023/08/01 23:06:44;;;;;;;;;;;;;;;15.45;100.00;95022.22;10522228;28;1901;-82
2023/08/01 23:12:08;;;;;;;;;;;;;;;15.38;100.00;95020.81;10518443;28;1973;-81
2023/08/01 23:17:16;;;;;;;;;;;;;;;15.29;100.00;95038.22;10522750;28;1956;-82
2023/08/01 23:22:31;;;;;;;;;;;;;;;15.34;100.00;95038.84;10522267;28;1945;-80
2023/08/01 23:27:38;;;;;;;;;;;;;;;15.29;100.00;95038.22;10517041;28;1917;-82
2023/08/01 23:32:51;;;;;;;;;;;;;;;15.22;100.00;95044.09;10516757;28;1986;-83
2023/08/01 23:38:01;;;;;;;;;;;;;;;15.19;100.00;95033.09;10529817;28;4473;-81
2023/08/01 23:43:18;;;;;;;;;;;;;;;15.26;100.00;95038.81;10511280;28;2421;-81
2023/08/01 23:48:29;;;;;;;;;;;;;;;15.13;100.00;95038.69;10530394;28;2158;-81
2023/08/01 23:53:40;;;;;;;;;;;;;;;15.10;100.00;95036.63;10511200;28;1947;-81
2023/08/01 23:58:46;;;;;;;;;;;;;;;15.03;100.00;95047.16;10530733;28;1918;-80
